sensor_id;sensor_type;location;lat;lon;timestamp;pressure;altitude;pressure_sealevel;temperature;humidity
10064;BME280;5071;52.360;13.134;2023-05-10T00:02:59;100691.13;;;11.61;62.20
10064;BME280;5071;52.360;13.134;2023-05-10T00:08:02;100694.75;;;11.57;62.48
10064;BME280;5071;52.360;13.134;2023-05-10T00:13:04;100693.91;;;11.54;62.45
10064;BME280;5071;52.360;13.134;2023-05-10T00:18:07;100683.25;;;11.57;62.55
10064;BME280;5071;52.360;13.134;2023-05-10T00:23:09;100669.97;;;11.55;62.74
10064;BME280;5071;52.360;13.134;2023-05-10T00:28:12;100663.03;;;11.46;62.94
10064;BME280;5071;52.360;13.134;2023-05-10T00:33:15;100663.13;;;11.42;63.18
10064;BME280;5071;52.360;13.134;2023-05-10T00:38:17;100670.25;;;11.40;63.20
10064;BME280;5071;52.360;13.134;2023-05-10T00:43:19;100657.91;;;11.36;63.46
10064;BME280;5071;52.360;13.134;2023-05-10T00:48:23;100648.97;;;11.40;63.59
10064;BME280;5071;52.360;13.134;2023-05-10T00:53:26;100652.69;;;11.29;63.59
10064;BME280;5071;52.360;13.134;2023-05-10T00:58:28;100658.00;;;11.29;63.61
10064;BME280;5071;52.360;13.134;2023-05-10T01:03:32;100648.31;;;11.27;63.41
10064;BME280;5071;52.360;13.134;2023-05-10T01:08:34;100643.94;;;11.24;63.78
10064;BME280;5071;52.360;13.134;2023-05-10T01:13:38;100639.47;;;11.25;63.72
10064;BME280;5071;52.360;13.134;2023-05-10T01:18:42;100646.72;;;11.15;63.74
10064;BME280;5071;52.360;13.134;2023-05-10T01:24:19;100651.34;;;11.04;64.31
10064;BME280;5071;52.360;13.134;2023-05-10T01:29:53;100639.06;;;10.97;64.46
10064;BME280;5071;52.360;13.134;2023-05-10T01:35:24;100639.19;;;10.89;64.58
10064;BME280;5071;52.360;13.134;2023-05-10T01:40:30;100630.41;;;10.82;64.46
10064;BME280;5071;52.360;13.134;2023-05-10T01:45:41;100625.91;;;10.87;64.58
10064;BME280;5071;52.360;13.134;2023-05-10T01:50:48;100625.31;;;10.70;65.38
10064;BME280;5071;52.360;13.134;2023-05-10T01:55:53;100622.72;;;10.64;65.36
10064;BME280;5071;52.360;13.134;2023-05-10T02:00:58;100618.47;;;10.54;65.62
10064;BME280;5071;52.360;13.134;2023-05-10T02:06:03;100630.88;;;10.52;66.00
10064;BME280;5071;52.360;13.134;2023-05-10T02:11:07;100624.00;;;10.35;66.38
10064;BME280;5071;52.360;13.134;2023-05-10T02:16:11;100629.34;;;10.32;66.89
10064;BME280;5071;52.360;13.134;2023-05-10T02:21:16;100622.41;;;10.19;67.30
10064;BME280;5071;52.360;13.134;2023-05-10T02:26:20;100616.28;;;10.15;67.60
10064;BME280;5071;52.360;13.134;2023-05-10T02:31:23;100615.50;;;10.05;68.03
10064;BME280;5071;52.360;13.134;2023-05-10T02:36:28;100612.97;;;9.98;68.16
10064;BME280;5071;52.360;13.134;2023-05-10T02:41:32;100603.28;;;9.93;68.54
10064;BME280;5071;52.360;13.134;2023-05-10T02:46:34;100607.75;;;9.90;68.74
10064;BME280;5071;52.360;13.134;2023-05-10T02:51:41;100608.72;;;9.80;69.16
10064;BME280;5071;52.360;13.134;2023-05-10T02:56:49;100606.16;;;9.75;69.34
10064;BME280;5071;52.360;13.134;2023-05-10T03:01:52;100601.88;;;9.62;69.90
10064;BME280;5071;52.360;13.134;2023-05-10T03:06:56;100607.97;;;9.68;69.83
10064;BME280;5071;52.360;13.134;2023-05-10T03:12:04;100593.94;;;9.59;69.84
10064;BME280;5071;52.360;13.134;2023-05-10T03:17:12;100603.75;;;9.52;70.59
10064;BME280;5071;52.360;13.134;2023-05-10T03:22:23;100599.31;;;9.52;70.32
10064;BME280;5071;52.360;13.134;2023-05-10T03:27:27;100598.41;;;9.55;70.53
10064;BME280;5071;52.360;13.134;2023-05-10T03:32:29;100607.28;;;9.51;70.71
10064;BME280;5071;52.360;13.134;2023-05-10T03:37:33;100596.69;;;9.51;70.83
10064;BME280;5071;52.360;13.134;2023-05-10T03:42:36;100595.75;;;9.57;71.28
10064;BME280;5071;52.360;13.134;2023-05-10T03:47:38;100595.81;;;9.52;70.82
10064;BME280;5071;52.360;13.134;2023-05-10T03:52:42;100593.16;;;9.52;71.30
10064;BME280;5071;52.360;13.134;2023-05-10T03:57:43;100590.50;;;9.52;71.31
10064;BME280;5071;52.360;13.134;2023-05-10T04:02:45;100584.31;;;9.53;71.17
10064;BME280;5071;52.360;13.134;2023-05-10T04:07:49;100593.09;;;9.58;71.16
10064;BME280;5071;52.360;13.134;2023-05-10T04:12:51;100584.19;;;9.62;71.11
10064;BME280;5071;52.360;13.134;2023-05-10T04:17:54;100577.06;;;9.70;70.79
10064;BME280;5071;52.360;13.134;2023-05-10T04:22:57;100577.81;;;9.80;70.37
10064;BME280;5071;52.360;13.134;2023-05-10T04:27:59;100580.28;;;9.97;69.89
10064;BME280;5071;52.360;13.134;2023-05-10T04:33:02;100586.97;;;10.26;69.11
10064;BME280;5071;52.360;13.134;2023-05-10T04:38:06;100579.75;;;11.46;64.54
10064;BME280;5071;52.360;13.134;2023-05-10T04:43:07;100573.56;;;12.34;61.19
10064;BME280;5071;52.360;13.134;2023-05-10T04:48:10;100574.16;;;12.84;60.37
10064;BME280;5071;52.360;13.134;2023-05-10T04:53:13;100572.03;;;13.35;57.19
10064;BME280;5071;52.360;13.134;2023-05-10T04:58:16;100571.41;;;13.89;56.26
10064;BME280;5071;52.360;13.134;2023-05-10T05:03:18;100574.22;;;14.14;54.57
10064;BME280;5071;52.360;13.134;2023-05-10T05:08:22;100575.28;;;14.68;53.78
10064;BME280;5071;52.360;13.134;2023-05-10T05:13:24;100574.75;;;14.27;54.46
10064;BME280;5071;52.360;13.134;2023-05-10T05:18:26;100585.41;;;14.27;55.11
10064;BME280;5071;52.360;13.134;2023-05-10T05:23:30;100578.09;;;14.64;54.14
10064;BME280;5071;52.360;13.134;2023-05-10T05:28:32;100583.50;;;15.42;51.84
10064;BME280;5071;52.360;13.134;2023-05-10T05:33:34;100572.38;;;15.54;51.78
10064;BME280;5071;52.360;13.134;2023-05-10T05:38:38;100573.47;;;15.74;51.19
10064;BME280;5071;52.360;13.134;2023-05-10T05:43:40;100573.38;;;16.24;50.60
10064;BME280;5071;52.360;13.134;2023-05-10T05:48:42;100571.69;;;15.98;50.82
10064;BME280;5071;52.360;13.134;2023-05-10T05:53:45;100564.91;;;16.13;49.48
10064;BME280;5071;52.360;13.134;2023-05-10T05:58:47;100561.97;;;16.87;47.50
10064;BME280;5071;52.360;13.134;2023-05-10T06:03:49;100571.88;;;17.07;47.25
10064;BME280;5071;52.360;13.134;2023-05-10T06:08:55;100571.03;;;17.68;45.94
10064;BME280;5071;52.360;13.134;2023-05-10T06:13:58;100569.69;;;17.58;45.99
10064;BME280;5071;52.360;13.134;2023-05-10T06:19:00;100564.75;;;18.27;46.13
10064;BME280;5071;52.360;13.134;2023-05-10T06:24:03;100563.13;;;18.61;43.54
10064;BME280;5071;52.360;13.134;2023-05-10T06:29:06;100575.72;;;17.83;45.68
10064;BME280;5071;52.360;13.134;2023-05-10T06:34:08;100563.19;;;17.22;46.56
10064;BME280;5071;52.360;13.134;2023-05-10T06:39:12;100558.13;;;16.94;47.40
10064;BME280;5071;52.360;13.134;2023-05-10T06:44:14;100562.03;;;17.69;46.05
10064;BME280;5071;52.360;13.134;2023-05-10T06:49:16;100560.38;;;18.63;44.32
10064;BME280;5071;52.360;13.134;2023-05-10T06:54:20;100569.97;;;18.69;43.93
10064;BME280;5071;52.360;13.134;2023-05-10T06:59:22;100566.88;;;18.76;43.76
10064;BME280;5071;52.360;13.134;2023-05-10T07:04:24;100562.72;;;17.95;45.71
10064;BME280;5071;52.360;13.134;2023-05-10T07:09:27;100561.28;;;19.35;41.92
10064;BME280;5071;52.360;13.134;2023-05-10T07:14:30;100553.88;;;18.86;43.91
10064;BME280;5071;52.360;13.134;2023-05-10T07:19:32;100548.97;;;20.15;41.73
10064;BME280;5071;52.360;13.134;2023-05-10T07:24:35;100555.59;;;18.32;44.78
10064;BME280;5071;52.360;13.134;2023-05-10T07:29:37;100552.16;;;19.20;42.71
10064;BME280;5071;52.360;13.134;2023-05-10T07:34:40;100553.34;;;20.81;40.61
10064;BME280;5071;52.360;13.134;2023-05-10T07:39:43;100549.25;;;19.93;42.08
10064;BME280;5071;52.360;13.134;2023-05-10T07:44:46;100559.59;;;20.34;41.51
10064;BME280;5071;52.360;13.134;2023-05-10T07:49:47;100558.56;;;20.68;41.64
10064;BME280;5071;52.360;13.134;2023-05-10T07:54:51;100548.78;;;21.58;39.23
10064;BME280;5071;52.360;13.134;2023-05-10T07:59:52;100558.13;;;21.22;39.93
10064;BME280;5071;52.360;13.134;2023-05-10T08:04:54;100558.31;;;20.73;40.86
10064;BME280;5071;52.360;13.134;2023-05-10T08:09:58;100560.13;;;21.49;40.11
10064;BME280;5071;52.360;13.134;2023-05-10T08:15:00;100554.75;;;21.49;39.79
10064;BME280;5071;52.360;13.134;2023-05-10T08:20:03;100566.97;;;22.13;38.43
10064;BME280;5071;52.360;13.134;2023-05-10T08:25:07;100564.63;;;22.50;38.50
10064;BME280;5071;52.360;13.134;2023-05-10T08:30:10;100561.81;;;21.35;40.21
10064;BME280;5071;52.360;13.134;2023-05-10T08:35:12;100567.94;;;21.98;38.23
10064;BME280;5071;52.360;13.134;2023-05-10T08:40:15;100568.88;;;21.38;39.65
10064;BME280;5071;52.360;13.134;2023-05-10T08:45:18;100571.19;;;22.03;38.34
10064;BME280;5071;52.360;13.134;2023-05-10T08:50:22;100575.44;;;23.98;35.94
10064;BME280;5071;52.360;13.134;2023-05-10T08:55:26;100578.72;;;24.53;35.57
10064;BME280;5071;52.360;13.134;2023-05-10T09:00:29;100573.09;;;24.80;34.16
10064;BME280;5071;52.360;13.134;2023-05-10T09:05:32;100567.16;;;23.74;35.87
10064;BME280;5071;52.360;13.134;2023-05-10T09:10:37;100568.66;;;23.52;36.29
10064;BME280;5071;52.360;13.134;2023-05-10T09:15:40;100578.09;;;25.21;33.71
10064;BME280;5071;52.360;13.134;2023-05-10T09:20:43;100574.38;;;25.93;32.82
10064;BME280;5071;52.360;13.134;2023-05-10T09:25:46;100581.56;;;26.62;31.93
10064;BME280;5071;52.360;13.134;2023-05-10T09:30:53;100571.34;;;25.63;32.46
10064;BME280;5071;52.360;13.134;2023-05-10T09:36:06;100575.88;;;25.15;33.58
10064;BME280;5071;52.360;13.134;2023-05-10T09:41:16;100584.34;;;24.87;33.33
10064;BME280;5071;52.360;13.134;2023-05-10T09:46:19;100588.00;;;26.27;31.04
10064;BME280;5071;52.360;13.134;2023-05-10T09:51:22;100588.25;;;26.13;32.46
10064;BME280;5071;52.360;13.134;2023-05-10T09:56:35;100595.50;;;28.29;29.80
10064;BME280;5071;52.360;13.134;2023-05-10T10:01:37;100600.19;;;28.98;27.59
10064;BME280;5071;52.360;13.134;2023-05-10T10:06:40;100585.66;;;28.17;29.51
10064;BME280;5071;52.360;13.134;2023-05-10T10:11:43;100584.56;;;28.69;28.15
10064;BME280;5071;52.360;13.134;2023-05-10T10:16:46;100592.53;;;29.70;27.16
10064;BME280;5071;52.360;13.134;2023-05-10T10:22:07;100588.59;;;28.75;27.13
10064;BME280;5071;52.360;13.134;2023-05-10T10:27:19;100585.28;;;28.00;29.10
10064;BME280;5071;52.360;13.134;2023-05-10T10:32:25;100576.91;;;27.29;29.75
10064;BME280;5071;52.360;13.134;2023-05-10T10:37:46;100583.59;;;26.92;29.28
10064;BME280;5071;52.360;13.134;2023-05-10T10:42:50;100578.66;;;27.19;30.38
10064;BME280;5071;52.360;13.134;2023-05-10T10:48:22;100576.00;;;25.96;31.75
10064;BME280;5071;52.360;13.134;2023-05-10T10:53:26;100571.94;;;24.71;33.82
10064;BME280;5071;52.360;13.134;2023-05-10T10:58:31;100569.28;;;24.82;34.00
10064;BME280;5071;52.360;13.134;2023-05-10T11:03:33;100569.66;;;24.15;35.64
10064;BME280;5071;52.360;13.134;2023-05-10T11:13:46;100564.97;;;23.66;36.29
10064;BME280;5071;52.360;13.134;2023-05-10T11:19:01;100546.31;;;24.25;35.84
10064;BME280;5071;52.360;13.134;2023-05-10T11:24:13;100558.09;;;24.50;36.09
10064;BME280;5071;52.360;13.134;2023-05-10T11:29:17;100551.31;;;24.93;34.58
10064;BME280;5071;52.360;13.134;2023-05-10T11:34:26;100554.91;;;24.93;33.96
10064;BME280;5071;52.360;13.134;2023-05-10T11:39:30;100564.25;;;24.65;35.04
10064;BME280;5071;52.360;13.134;2023-05-10T11:44:34;100550.13;;;23.59;36.14
10064;BME280;5071;52.360;13.134;2023-05-10T11:49:36;100547.13;;;23.89;35.52
10064;BME280;5071;52.360;13.134;2023-05-10T11:54:45;100563.63;;;24.49;36.58
10064;BME280;5071;52.360;13.134;2023-05-10T11:59:53;100549.34;;;24.21;36.03
10064;BME280;5071;52.360;13.134;2023-05-10T12:04:55;100541.34;;;23.55;36.58
10064;BME280;5071;52.360;13.134;2023-05-10T12:10:05;100556.72;;;24.19;36.11
10064;BME280;5071;52.360;13.134;2023-05-10T12:15:17;100549.94;;;24.50;35.41
10064;BME280;5071;52.360;13.134;2023-05-10T12:20:22;100555.59;;;25.08;34.52
10064;BME280;5071;52.360;13.134;2023-05-10T12:25:30;100571.69;;;24.37;35.15
10064;BME280;5071;52.360;13.134;2023-05-10T12:30:35;100554.44;;;24.75;33.74
10064;BME280;5071;52.360;13.134;2023-05-10T12:35:45;100565.59;;;25.43;33.64
10064;BME280;5071;52.360;13.134;2023-05-10T12:40:48;100558.88;;;25.00;33.88
10064;BME280;5071;52.360;13.134;2023-05-10T12:45:52;100552.06;;;25.77;33.03
10064;BME280;5071;52.360;13.134;2023-05-10T12:50:54;100569.88;;;25.23;34.56
10064;BME280;5071;52.360;13.134;2023-05-10T12:55:56;100566.44;;;25.79;32.84
10064;BME280;5071;52.360;13.134;2023-05-10T13:00:59;100568.06;;;26.38;32.42
10064;BME280;5071;52.360;13.134;2023-05-10T13:06:02;100564.00;;;25.98;32.25
10064;BME280;5071;52.360;13.134;2023-05-10T13:11:05;100557.63;;;25.53;33.97
10064;BME280;5071;52.360;13.134;2023-05-10T13:16:09;100561.59;;;25.83;33.14
10064;BME280;5071;52.360;13.134;2023-05-10T13:21:11;100558.13;;;25.80;32.03
10064;BME280;5071;52.360;13.134;2023-05-10T13:26:13;100552.88;;;26.35;32.35
10064;BME280;5071;52.360;13.134;2023-05-10T13:31:17;100566.97;;;26.29;32.65
10064;BME280;5071;52.360;13.134;2023-05-10T13:36:19;100549.22;;;25.67;32.45
10064;BME280;5071;52.360;13.134;2023-05-10T13:41:21;100545.59;;;25.44;33.39
10064;BME280;5071;52.360;13.134;2023-05-10T13:46:25;100562.13;;;25.41;33.21
10064;BME280;5071;52.360;13.134;2023-05-10T13:51:27;100555.19;;;24.53;34.10
10064;BME280;5071;52.360;13.134;2023-05-10T13:56:29;100547.72;;;24.68;33.48
10064;BME280;5071;52.360;13.134;2023-05-10T14:01:32;100548.75;;;24.41;34.39
10064;BME280;5071;52.360;13.134;2023-05-10T14:06:34;100544.84;;;24.58;33.21
10064;BME280;5071;52.360;13.134;2023-05-10T14:11:37;100545.53;;;24.73;33.15
10064;BME280;5071;52.360;13.134;2023-05-10T14:16:42;100548.78;;;25.27;34.18
10064;BME280;5071;52.360;13.134;2023-05-10T14:21:45;100552.66;;;25.22;32.92
10064;BME280;5071;52.360;13.134;2023-05-10T14:26:48;100553.22;;;24.79;33.40
10064;BME280;5071;52.360;13.134;2023-05-10T14:31:51;100556.19;;;24.76;33.80
10064;BME280;5071;52.360;13.134;2023-05-10T14:36:54;100550.44;;;24.68;33.94
10064;BME280;5071;52.360;13.134;2023-05-10T14:41:56;100561.94;;;24.96;33.52
10064;BME280;5071;52.360;13.134;2023-05-10T14:47:00;100550.03;;;25.45;32.22
10064;BME280;5071;52.360;13.134;2023-05-10T14:52:02;100550.22;;;24.71;33.37
10064;BME280;5071;52.360;13.134;2023-05-10T14:57:04;100548.75;;;24.41;34.54
10064;BME280;5071;52.360;13.134;2023-05-10T15:02:08;100547.44;;;23.97;35.62
10064;BME280;5071;52.360;13.134;2023-05-10T15:07:10;100551.13;;;23.71;39.84
10064;BME280;5071;52.360;13.134;2023-05-10T15:12:13;100561.50;;;23.51;42.67
10064;BME280;5071;52.360;13.134;2023-05-10T15:17:17;100565.97;;;23.52;42.34
10064;BME280;5071;52.360;13.134;2023-05-10T15:22:19;100562.53;;;23.23;47.28
10064;BME280;5071;52.360;13.134;2023-05-10T15:27:21;100574.00;;;22.45;49.75
10064;BME280;5071;52.360;13.134;2023-05-10T15:32:25;100575.44;;;21.93;52.37
10064;BME280;5071;52.360;13.134;2023-05-10T15:37:27;100573.34;;;22.27;51.76
10064;BME280;5071;52.360;13.134;2023-05-10T15:42:30;100588.41;;;22.31;51.50
10064;BME280;5071;52.360;13.134;2023-05-10T15:47:34;100595.53;;;21.89;53.34
10064;BME280;5071;52.360;13.134;2023-05-10T15:52:36;100595.88;;;21.83;54.26
10064;BME280;5071;52.360;13.134;2023-05-10T15:57:38;100606.25;;;21.46;53.84
10064;BME280;5071;52.360;13.134;2023-05-10T16:02:42;100607.38;;;21.42;52.66
10064;BME280;5071;52.360;13.134;2023-05-10T16:07:44;100606.66;;;21.54;51.91
10064;BME280;5071;52.360;13.134;2023-05-10T16:12:46;100615.75;;;21.67;51.89
10064;BME280;5071;52.360;13.134;2023-05-10T16:17:49;100624.53;;;21.41;52.20
10064;BME280;5071;52.360;13.134;2023-05-10T16:22:51;100625.00;;;21.17;53.64
10064;BME280;5071;52.360;13.134;2023-05-10T16:27:53;100636.69;;;21.02;54.41
10064;BME280;5071;52.360;13.134;2023-05-10T16:32:58;100633.75;;;20.74;54.83
10064;BME280;5071;52.360;13.134;2023-05-10T16:38:00;100641.00;;;20.56;55.55
10064;BME280;5071;52.360;13.134;2023-05-10T16:43:03;100650.13;;;20.38;57.69
10064;BME280;5071;52.360;13.134;2023-05-10T16:48:07;100650.88;;;20.24;57.68
10064;BME280;5071;52.360;13.134;2023-05-10T16:53:09;100653.66;;;20.23;58.54
10064;BME280;5071;52.360;13.134;2023-05-10T16:58:11;100659.47;;;20.15;58.91
10064;BME280;5071;52.360;13.134;2023-05-10T17:03:15;100661.22;;;20.16;60.07
10064;BME280;5071;52.360;13.134;2023-05-10T17:08:18;100665.41;;;20.04;59.60
10064;BME280;5071;52.360;13.134;2023-05-10T17:13:21;100667.81;;;19.93;60.55
10064;BME280;5071;52.360;13.134;2023-05-10T17:18:24;100671.13;;;19.98;59.50
10064;BME280;5071;52.360;13.134;2023-05-10T17:23:28;100660.31;;;20.15;59.32
10064;BME280;5071;52.360;13.134;2023-05-10T17:28:30;100683.16;;;20.08;59.37
10064;BME280;5071;52.360;13.134;2023-05-10T17:33:35;100679.97;;;20.17;58.20
10064;BME280;5071;52.360;13.134;2023-05-10T17:38:38;100689.66;;;20.04;57.89
10064;BME280;5071;52.360;13.134;2023-05-10T17:43:41;100698.22;;;19.95;59.07
10064;BME280;5071;52.360;13.134;2023-05-10T17:48:45;100702.84;;;19.93;59.24
10064;BME280;5071;52.360;13.134;2023-05-10T17:53:47;100711.13;;;19.71;59.29
10064;BME280;5071;52.360;13.134;2023-05-10T17:58:49;100709.84;;;19.60;60.30
10064;BME280;5071;52.360;13.134;2023-05-10T18:03:53;100705.50;;;19.58;60.89
10064;BME280;5071;52.360;13.134;2023-05-10T18:08:55;100713.69;;;19.37;60.97
10064;BME280;5071;52.360;13.134;2023-05-10T18:13:57;100719.84;;;19.22;61.78
10064;BME280;5071;52.360;13.134;2023-05-10T18:19:00;100717.50;;;19.14;62.66
10064;BME280;5071;52.360;13.134;2023-05-10T18:24:03;100723.84;;;18.94;63.17
10064;BME280;5071;52.360;13.134;2023-05-10T18:29:05;100728.41;;;18.73;63.64
10064;BME280;5071;52.360;13.134;2023-05-10T18:34:09;100736.75;;;18.46;65.27
10064;BME280;5071;52.360;13.134;2023-05-10T18:39:11;100735.34;;;18.19;67.24
10064;BME280;5071;52.360;13.134;2023-05-10T18:44:14;100739.41;;;18.07;67.88
10064;BME280;5071;52.360;13.134;2023-05-10T18:49:17;100743.19;;;18.03;68.10
10064;BME280;5071;52.360;13.134;2023-05-10T18:54:19;100747.56;;;17.83;69.35
10064;BME280;5071;52.360;13.134;2023-05-10T18:59:21;100755.31;;;17.69;69.42
10064;BME280;5071;52.360;13.134;2023-05-10T19:04:25;100771.91;;;17.57;70.31
10064;BME280;5071;52.360;13.134;2023-05-10T19:09:27;100771.25;;;17.74;69.86
10064;BME280;5071;52.360;13.134;2023-05-10T19:14:29;100774.91;;;17.71;73.04
10064;BME280;5071;52.360;13.134;2023-05-10T19:19:33;100778.94;;;17.61;74.44
10064;BME280;5071;52.360;13.134;2023-05-10T19:24:38;100792.38;;;17.61;75.30
10064;BME280;5071;52.360;13.134;2023-05-10T19:29:41;100786.09;;;17.60;76.36
10064;BME280;5071;52.360;13.134;2023-05-10T19:34:44;100787.22;;;17.55;77.50
10064;BME280;5071;52.360;13.134;2023-05-10T19:39:46;100799.16;;;17.47;78.32
10064;BME280;5071;52.360;13.134;2023-05-10T19:44:48;100802.22;;;17.38;78.68
10064;BME280;5071;52.360;13.134;2023-05-10T19:49:51;100810.47;;;17.32;78.85
10064;BME280;5071;52.360;13.134;2023-05-10T19:54:53;100812.59;;;17.24;79.57
10064;BME280;5071;52.360;13.134;2023-05-10T19:59:55;100812.59;;;17.24;79.57
10064;BME280;5071;52.360;13.134;2023-05-10T20:04:58;100823.34;;;17.24;79.18
10064;BME280;5071;52.360;13.134;2023-05-10T20:10:00;100822.69;;;17.17;79.08
10064;BME280;5071;52.360;13.134;2023-05-10T20:15:04;100823.69;;;17.15;79.57
10064;BME280;5071;52.360;13.134;2023-05-10T20:20:10;100829.28;;;17.08;79.81
10064;BME280;5071;52.360;13.134;2023-05-10T20:25:13;100834.00;;;17.02;80.37
10064;BME280;5071;52.360;13.134;2023-05-10T20:30:15;100837.91;;;16.93;80.27
10064;BME280;5071;52.360;13.134;2023-05-10T20:35:19;100829.97;;;16.90;80.47
10064;BME280;5071;52.360;13.134;2023-05-10T20:40:21;100832.56;;;16.93;80.51
10064;BME280;5071;52.360;13.134;2023-05-10T20:45:23;100834.63;;;16.85;81.24
10064;BME280;5071;52.360;13.134;2023-05-10T20:50:27;100839.19;;;16.83;81.51
10064;BME280;5071;52.360;13.134;2023-05-10T20:55:29;100835.25;;;16.93;81.08
10064;BME280;5071;52.360;13.134;2023-05-10T21:00:31;100829.47;;;16.79;81.97
10064;BME280;5071;52.360;13.134;2023-05-10T21:05:35;100837.63;;;16.76;81.93
10064;BME280;5071;52.360;13.134;2023-05-10T21:10:37;100843.88;;;16.76;81.86
10064;BME280;5071;52.360;13.134;2023-05-10T21:15:38;100843.22;;;16.69;82.74
10064;BME280;5071;52.360;13.134;2023-05-10T21:20:42;100846.72;;;16.71;82.58
10064;BME280;5071;52.360;13.134;2023-05-10T21:25:44;100852.53;;;16.59;83.34
10064;BME280;5071;52.360;13.134;2023-05-10T21:30:46;100851.09;;;16.49;83.97
10064;BME280;5071;52.360;13.134;2023-05-10T21:35:50;100857.38;;;16.48;83.47
10064;BME280;5071;52.360;13.134;2023-05-10T21:40:52;100852.22;;;16.42;83.82
10064;BME280;5071;52.360;13.134;2023-05-10T21:45:54;100849.91;;;16.31;84.06
10064;BME280;5071;52.360;13.134;2023-05-10T21:50:58;100854.72;;;16.21;85.32
10064;BME280;5071;52.360;13.134;2023-05-10T21:56:00;100854.19;;;16.10;86.45
10064;BME280;5071;52.360;13.134;2023-05-10T22:01:02;100852.47;;;16.09;85.87
10064;BME280;5071;52.360;13.134;2023-05-10T22:06:06;100855.22;;;16.06;85.72
10064;BME280;5071;52.360;13.134;2023-05-10T22:11:08;100860.69;;;16.03;86.34
10064;BME280;5071;52.360;13.134;2023-05-10T22:16:11;100863.69;;;15.93;86.37
10064;BME280;5071;52.360;13.134;2023-05-10T22:21:14;100861.09;;;15.90;87.24
10064;BME280;5071;52.360;13.134;2023-05-10T22:26:16;100856.94;;;15.80;87.66
10064;BME280;5071;52.360;13.134;2023-05-10T22:31:18;100860.75;;;15.73;88.29
10064;BME280;5071;52.360;13.134;2023-05-10T22:36:22;100868.03;;;15.68;88.33
10064;BME280;5071;52.360;13.134;2023-05-10T22:41:24;100863.06;;;15.55;88.83
10064;BME280;5071;52.360;13.134;2023-05-10T22:46:26;100862.53;;;15.43;89.34
10064;BME280;5071;52.360;13.134;2023-05-10T22:51:29;100864.91;;;15.24;89.92
10064;BME280;5071;52.360;13.134;2023-05-10T22:56:32;100875.16;;;15.09;90.17
10064;BME280;5071;52.360;13.134;2023-05-10T23:01:34;100866.91;;;14.86;90.75
10064;BME280;5071;52.360;13.134;2023-05-10T23:06:38;100864.38;;;14.81;92.14
10064;BME280;5071;52.360;13.134;2023-05-10T23:11:40;100875.66;;;14.58;92.68
10064;BME280;5071;52.360;13.134;2023-05-10T23:16:42;100864.66;;;14.36;93.14
10064;BME280;5071;52.360;13.134;2023-05-10T23:21:46;100870.34;;;14.22;93.68
10064;BME280;5071;52.360;13.134;2023-05-10T23:26:48;100881.47;;;14.04;94.53
10064;BME280;5071;52.360;13.134;2023-05-10T23:31:50;100877.47;;;13.86;95.83
10064;BME280;5071;52.360;13.134;2023-05-10T23:36:54;100872.66;;;13.63;96.07
10064;BME280;5071;52.360;13.134;2023-05-10T23:41:56;100869.44;;;13.48;97.04
10064;BME280;5071;52.360;13.134;2023-05-10T23:46:58;100875.97;;;13.35;97.02
10064;BME280;5071;52.360;13.134;2023-05-10T23:52:01;100874.50;;;13.18;98.02
10064;BME280;5071;52.360;13.134;2023-05-10T23:57:03;100872.03;;;13.08;98.18
